Time;durP1;ratioP1;P1;durP2;ratioP2;P2;SDS_P1;SDS_P2;PMS_P1;PMS_P2;Temp;Humidity;BMP_temperature;BMP_pressure;BME280_temperature;BME280_humidity;BME280_pressure;Samples;Min_cycle;Max_cycle;Signal;HPM_P1;HPM_P2
2022/08/14 00:02:15;;;;;;;3.13;2.70;;;19.40;97.30;;;;;;5100882;28;20423;-80
2022/08/14 00:04:40;;;;;;;4.10;2.80;;;19.40;97.30;;;;;;5117722;28;20192;-80
2022/08/14 00:07:06;;;;;;;4.20;2.23;;;19.30;97.30;;;;;;5110130;28;20178;-80
2022/08/14 00:09:31;;;;;;;4.30;3.10;;;19.30;97.30;;;;;;5098061;28;20198;-81
2022/08/14 00:11:57;;;;;;;5.73;3.30;;;19.40;97.30;;;;;;5118049;27;20174;-84
2022/08/14 00:14:25;;;;;;;5.43;3.00;;;19.30;97.30;;;;;;5085672;28;20202;-84
2022/08/14 00:16:51;;;;;;;4.77;3.20;;;19.30;97.30;;;;;;5095949;28;20177;-84
2022/08/14 00:19:17;;;;;;;3.87;3.20;;;19.30;97.30;;;;;;5101596;28;20471;-81
2022/08/14 00:21:42;;;;;;;3.83;3.27;;;19.30;97.30;;;;;;5120846;28;20166;-82
2022/08/14 00:24:08;;;;;;;3.20;2.60;;;19.30;97.30;;;;;;5101899;28;20427;-81
2022/08/14 00:26:34;;;;;;;6.63;4.83;;;19.30;97.30;;;;;;5102491;28;20227;-82
2022/08/14 00:28:59;;;;;;;5.40;2.87;;;19.20;97.30;;;;;;5103693;28;20189;-83
2022/08/14 00:31:26;;;;;;;7.27;3.70;;;19.20;97.30;;;;;;5109014;28;20272;-82
2022/08/14 00:33:52;;;;;;;6.10;4.23;;;19.20;97.30;;;;;;5120674;28;20193;-82
2022/08/14 00:36:19;;;;;;;4.33;3.60;;;19.10;97.30;;;;;;5119758;28;20419;-82
2022/08/14 00:38:44;;;;;;;3.93;2.97;;;19.10;97.30;;;;;;5103291;28;20279;-82
2022/08/14 00:41:10;;;;;;;3.30;2.63;;;19.00;97.30;;;;;;5119238;28;20657;-81
2022/08/14 00:43:37;;;;;;;3.57;2.63;;;19.00;97.30;;;;;;5119394;28;20208;-82
2022/08/14 00:46:05;;;;;;;4.40;3.03;;;19.00;97.30;;;;;;5119170;28;20192;-82
2022/08/14 00:48:30;;;;;;;5.67;3.50;;;19.00;97.30;;;;;;5102897;28;20432;-82
2022/08/14 00:50:56;;;;;;;8.90;5.50;;;19.00;97.30;;;;;;5118659;28;20942;-82
2022/08/14 00:53:24;;;;;;;3.87;3.20;;;19.00;97.30;;;;;;5120480;28;20534;-85
2022/08/14 00:55:50;;;;;;;3.60;3.20;;;18.90;97.30;;;;;;5095626;28;20291;-85
2022/08/14 00:58:32;;;;;;;5.13;3.27;;;18.90;97.30;;;;;;5094554;28;20408;-83
2022/08/14 01:00:59;;;;;;;6.60;3.50;;;18.90;97.30;;;;;;5109360;28;20420;-84
2022/08/14 01:03:28;;;;;;;4.57;3.67;;;18.80;97.30;;;;;;5110247;28;20419;-82
2022/08/14 01:05:55;;;;;;;4.23;3.00;;;18.80;97.30;;;;;;5100720;28;20506;-82
2022/08/14 01:08:26;;;;;;;5.30;3.33;;;18.70;97.30;;;;;;5115478;28;20412;-82
2022/08/14 01:10:54;;;;;;;6.97;3.07;;;18.70;97.30;;;;;;5115378;28;20421;-82
2022/08/14 01:13:33;;;;;;;5.83;3.70;;;18.70;97.30;;;;;;5118435;28;20832;-82
2022/08/14 01:16:01;;;;;;;6.63;2.67;;;18.70;97.30;;;;;;5105887;28;20417;-82
2022/08/14 01:21:14;;;;;;;4.93;3.27;;;18.70;97.30;;;;;;5117566;28;20395;-81
2022/08/14 01:23:54;;;;;;;4.10;3.37;;;18.60;97.30;;;;;;5081198;28;20434;-83
2022/08/14 01:26:22;;;;;;;8.87;4.40;;;18.60;97.30;;;;;;5095029;28;20480;-81
2022/08/14 01:28:54;;;;;;;6.00;4.00;;;18.60;97.30;;;;;;5091782;28;20443;-82
2022/08/14 01:31:22;;;;;;;3.10;1.93;;;18.60;97.30;;;;;;5086162;28;20435;-81
2022/08/14 01:33:50;;;;;;;3.43;3.10;;;18.60;97.30;;;;;;5099443;28;20494;-83
2022/08/14 01:36:19;;;;;;;6.27;3.37;;;18.60;97.30;;;;;;5100705;28;20455;-82
2022/08/14 01:38:47;;;;;;;4.37;2.83;;;18.60;97.30;;;;;;5100532;28;20496;-82
2022/08/14 01:41:19;;;;;;;4.80;2.53;;;18.60;97.30;;;;;;5105090;28;20487;-82
2022/08/14 01:43:51;;;;;;;2.90;2.43;;;18.60;97.30;;;;;;5115582;28;20760;-82
2022/08/14 01:46:20;;;;;;;6.40;3.50;;;18.60;97.30;;;;;;5116515;28;20431;-82
2022/08/14 01:48:47;;;;;;;4.13;2.80;;;18.60;97.30;;;;;;5115375;28;20492;-82
2022/08/14 01:51:15;;;;;;;5.53;3.07;;;18.60;97.30;;;;;;5088166;28;20424;-83
2022/08/14 01:53:46;;;;;;;4.17;3.30;;;18.50;97.30;;;;;;5080053;28;20459;-83
2022/08/14 01:56:17;;;;;;;5.80;2.67;;;18.50;97.30;;;;;;5108020;28;20501;-84
2022/08/14 01:58:47;;;;;;;9.40;3.40;;;18.50;97.30;;;;;;5113440;28;20473;-83
2022/08/14 02:01:14;;;;;;;2.20;2.03;;;18.50;97.30;;;;;;5115628;28;20424;-82
2022/08/14 02:03:40;;;;;;;3.33;3.13;;;18.50;97.30;;;;;;5119483;28;20423;-83
2022/08/14 02:06:07;;;;;;;2.50;2.07;;;18.40;97.30;;;;;;5101826;28;20792;-80
2022/08/14 02:08:36;;;;;;;6.07;4.37;;;18.40;97.30;;;;;;5101876;28;20207;-80
2022/08/14 02:11:21;;;;;;;4.53;3.33;;;18.30;97.30;;;;;;5102073;28;20897;-80
2022/08/14 02:13:59;;;;;;;8.40;3.47;;;18.30;97.30;;;;;;5082737;28;20444;-78
2022/08/14 02:16:35;;;;;;;11.70;4.70;;;18.30;97.30;;;;;;5086162;28;20412;-81
2022/08/14 02:19:03;;;;;;;5.17;3.77;;;18.20;97.30;;;;;;5095814;28;20435;-81
2022/08/14 02:21:31;;;;;;;4.30;3.63;;;18.20;97.30;;;;;;5123278;28;20439;-82
2022/08/14 02:24:00;;;;;;;7.30;3.30;;;18.20;97.30;;;;;;5120355;28;20427;-80
2022/08/14 02:26:35;;;;;;;4.37;3.10;;;18.20;97.30;;;;;;5107173;28;20415;-81
2022/08/14 02:29:09;;;;;;;8.40;4.23;;;18.10;97.30;;;;;;5102589;28;21089;-80
2022/08/14 02:31:39;;;;;;;3.80;2.80;;;18.10;97.30;;;;;;5120954;28;20825;-79
2022/08/14 02:34:19;;;;;;;6.93;4.30;;;18.10;97.30;;;;;;5120689;28;20880;-80
2022/08/14 02:36:50;;;;;;;3.30;2.37;;;18.00;97.30;;;;;;5119788;28;20422;-80
2022/08/14 02:39:16;;;;;;;3.80;2.40;;;18.00;97.30;;;;;;5106245;27;20426;-80
2022/08/14 02:41:42;;;;;;;4.80;3.80;;;18.00;97.30;;;;;;5111719;27;20450;-79
2022/08/14 02:44:09;;;;;;;4.27;3.37;;;18.00;97.30;;;;;;5102676;28;20772;-80
2022/08/14 02:46:40;;;;;;;4.50;2.30;;;18.00;97.30;;;;;;5102485;28;20420;-80
2022/08/14 02:49:06;;;;;;;8.77;4.40;;;18.00;97.30;;;;;;5119782;28;20435;-80
2022/08/14 02:51:33;;;;;;;9.87;4.33;;;17.90;97.30;;;;;;5120472;28;20418;-80
2022/08/14 02:54:00;;;;;;;2.70;2.53;;;17.90;97.30;;;;;;5101978;28;20212;-79
2022/08/14 02:56:26;;;;;;;7.07;3.40;;;17.90;97.30;;;;;;5102556;28;20947;-80
2022/08/14 02:58:55;;;;;;;7.10;3.77;;;17.90;97.30;;;;;;5102384;28;20464;-80
2022/08/14 03:01:22;;;;;;;5.80;4.27;;;17.80;97.30;;;;;;5117732;28;20444;-86
2022/08/14 03:03:49;;;;;;;7.97;5.13;;;17.80;97.30;;;;;;5115488;28;20430;-86
2022/08/14 03:06:24;;;;;;;3.57;2.47;;;17.80;97.30;;;;;;5097456;28;20499;-85
2022/08/14 03:08:51;;;;;;;6.10;3.00;;;17.80;97.30;;;;;;5098958;28;20443;-85
2022/08/14 03:11:18;;;;;;;5.43;3.60;;;17.80;97.30;;;;;;5115388;28;20408;-85
2022/08/14 03:13:46;;;;;;;5.10;3.27;;;17.80;97.30;;;;;;5101633;28;20451;-85
2022/08/14 03:16:14;;;;;;;5.90;3.90;;;17.80;97.30;;;;;;5101841;28;20420;-84
2022/08/14 03:18:43;;;;;;;4.17;2.97;;;17.90;97.30;;;;;;5119108;28;20513;-85
2022/08/14 03:21:12;;;;;;;6.87;4.77;;;17.90;97.30;;;;;;5105322;28;20404;-83
2022/08/14 03:23:44;;;;;;;8.13;4.93;;;17.80;97.30;;;;;;5105176;28;20451;-83
2022/08/14 03:26:12;;;;;;;6.20;3.90;;;17.80;97.30;;;;;;5105446;28;20403;-83
2022/08/14 03:28:40;;;;;;;5.73;3.80;;;17.80;97.30;;;;;;5104951;28;20432;-84
2022/08/14 03:31:07;;;;;;;5.50;2.83;;;17.80;97.30;;;;;;5117048;27;20420;-84
2022/08/14 03:33:35;;;;;;;5.57;3.40;;;17.70;97.30;;;;;;5117050;27;20426;-82
2022/08/14 03:36:08;;;;;;;5.93;3.50;;;17.70;97.30;;;;;;5109959;27;20519;-82
2022/08/14 03:38:41;;;;;;;6.50;3.83;;;17.70;97.30;;;;;;5119159;27;20506;-82
2022/08/14 03:41:17;;;;;;;9.63;3.50;;;17.80;97.30;;;;;;5100692;28;20890;-82
2022/08/14 03:43:44;;;;;;;7.57;3.00;;;17.80;97.30;;;;;;5101137;28;20403;-82
2022/08/14 03:46:12;;;;;;;7.43;4.23;;;17.80;97.30;;;;;;5129230;27;20476;-83
2022/08/14 03:48:38;;;;;;;8.27;4.27;;;17.80;97.30;;;;;;5116834;28;20909;-81
2022/08/14 03:51:07;;;;;;;6.30;3.30;;;17.80;97.30;;;;;;5124188;27;20936;-81
2022/08/14 03:53:37;;;;;;;3.83;2.83;;;17.80;97.30;;;;;;5117489;27;20776;-81
2022/08/14 03:56:04;;;;;;;3.73;3.10;;;17.80;97.30;;;;;;5117570;28;21096;-81
2022/08/14 03:58:31;;;;;;;4.50;3.33;;;17.80;97.30;;;;;;5098282;28;20535;-81
2022/08/14 04:00:57;;;;;;;3.30;3.07;;;17.80;97.30;;;;;;5115196;28;20416;-82
2022/08/14 04:03:24;;;;;;;6.87;3.60;;;17.80;97.30;;;;;;5112267;28;20421;-81
2022/08/14 04:05:49;;;;;;;7.70;3.67;;;17.80;97.30;;;;;;5111851;28;20409;-81
2022/08/14 04:08:16;;;;;;;6.43;2.53;;;17.80;97.30;;;;;;5109562;28;20818;-81
2022/08/14 04:10:41;;;;;;;4.27;2.57;;;17.80;97.30;;;;;;5115011;28;20181;-82
2022/08/14 04:13:07;;;;;;;4.93;3.70;;;17.80;97.30;;;;;;5101419;28;20418;-81
2022/08/14 04:15:33;;;;;;;3.83;3.50;;;17.80;97.30;;;;;;5116052;28;20670;-82
2022/08/14 04:18:07;;;;;;;4.90;3.30;;;17.80;97.30;;;;;;5108786;28;20470;-81
2022/08/14 04:20:36;;;;;;;6.30;3.20;;;17.80;97.30;;;;;;5104663;28;20475;-81
2022/08/14 04:23:03;;;;;;;2.77;2.40;;;17.80;97.30;;;;;;5094495;28;20428;-82
2022/08/14 04:25:32;;;;;;;5.40;4.57;;;17.80;97.30;;;;;;5115358;28;20400;-81
2022/08/14 04:28:04;;;;;;;3.33;2.27;;;17.80;97.30;;;;;;5109841;28;20423;-82
2022/08/14 04:30:38;;;;;;;7.37;3.40;;;17.80;97.30;;;;;;5089356;28;20507;-81
2022/08/14 04:33:06;;;;;;;3.93;3.00;;;17.80;97.30;;;;;;5115478;28;20503;-81
2022/08/14 04:35:32;;;;;;;7.90;3.77;;;17.80;97.30;;;;;;5115134;28;20827;-81
2022/08/14 04:43:35;;;;;;;6.87;4.00;;;17.80;97.30;;;;;;5117005;28;20560;-81
2022/08/14 04:46:06;;;;;;;3.97;2.23;;;17.80;97.30;;;;;;5097290;28;20442;-81
2022/08/14 04:48:32;;;;;;;11.13;5.77;;;17.80;97.30;;;;;;5097056;28;20435;-81
2022/08/14 04:50:59;;;;;;;5.43;3.10;;;17.80;97.30;;;;;;5097799;28;20419;-81
2022/08/14 04:53:27;;;;;;;8.90;4.00;;;17.80;97.30;;;;;;5101944;28;20413;-81
2022/08/14 04:55:54;;;;;;;6.47;3.50;;;17.90;97.30;;;;;;5085414;28;20415;-82
2022/08/14 04:58:26;;;;;;;11.57;4.30;;;17.90;97.30;;;;;;5096571;28;20416;-82
2022/08/14 05:00:53;;;;;;;5.87;4.30;;;18.00;97.30;;;;;;5114414;28;20496;-81
2022/08/14 05:03:20;;;;;;;7.13;4.03;;;18.00;97.30;;;;;;5096469;28;20451;-81
2022/08/14 05:05:52;;;;;;;3.60;3.07;;;18.00;97.30;;;;;;5113306;28;20436;-81
2022/08/14 05:08:17;;;;;;;8.70;3.37;;;18.10;97.30;;;;;;5096830;28;21100;-81
2022/08/14 05:10:50;;;;;;;4.53;3.10;;;18.10;97.30;;;;;;5104441;28;20420;-82
2022/08/14 05:13:17;;;;;;;6.33;3.33;;;18.10;97.30;;;;;;5091128;28;20648;-82
2022/08/14 05:15:45;;;;;;;5.43;4.37;;;18.10;97.30;;;;;;5076958;28;20475;-82
2022/08/14 05:18:14;;;;;;;4.50;2.60;;;18.10;97.30;;;;;;5095257;28;20653;-82
2022/08/14 05:20:45;;;;;;;4.63;2.70;;;18.20;97.30;;;;;;5102757;28;20435;-82
2022/08/14 05:23:17;;;;;;;11.53;4.63;;;18.20;97.30;;;;;;5095509;28;20435;-81
2022/08/14 05:25:43;;;;;;;5.43;3.23;;;18.20;97.30;;;;;;5114931;28;20442;-81
2022/08/14 05:28:11;;;;;;;3.30;2.73;;;18.30;97.30;;;;;;5113050;28;20422;-81
2022/08/14 05:30:38;;;;;;;4.60;3.20;;;18.30;97.30;;;;;;5117005;28;20424;-81
2022/08/14 05:33:04;;;;;;;7.00;4.80;;;18.40;97.30;;;;;;5105421;28;20506;-82
2022/08/14 05:35:31;;;;;;;6.37;4.03;;;18.40;97.30;;;;;;5099972;28;20983;-82
2022/08/14 05:37:58;;;;;;;5.03;3.97;;;18.40;97.30;;;;;;5103035;28;20396;-81
2022/08/14 05:40:24;;;;;;;8.57;4.70;;;18.50;97.30;;;;;;5106833;28;20439;-81
2022/08/14 05:42:49;;;;;;;4.27;3.50;;;18.50;97.30;;;;;;5093790;28;20430;-81
2022/08/14 05:45:16;;;;;;;4.00;3.30;;;18.60;97.30;;;;;;5098614;28;20425;-81
2022/08/14 05:47:42;;;;;;;3.77;2.97;;;18.60;97.30;;;;;;5110166;28;20182;-81
2022/08/14 05:50:11;;;;;;;12.67;3.53;;;18.70;97.30;;;;;;5110072;28;20431;-82
2022/08/14 05:52:37;;;;;;;8.10;4.10;;;18.70;97.30;;;;;;5086958;28;20411;-81
2022/08/14 05:55:04;;;;;;;7.47;4.23;;;18.80;97.30;;;;;;5099150;28;20455;-81
2022/08/14 05:57:30;;;;;;;5.87;4.07;;;18.80;97.30;;;;;;5116400;28;20565;-82
2022/08/14 05:59:56;;;;;;;5.97;3.60;;;18.90;97.30;;;;;;5114112;23;20500;-90
2022/08/14 06:02:27;;;;;;;4.47;2.60;;;19.00;97.30;;;;;;5094015;28;20179;-90
2022/08/14 06:04:56;;;;;;;5.97;3.47;;;19.00;97.30;;;;;;5092867;28;20198;-89
2022/08/14 06:07:44;;;;;;;5.80;3.40;;;19.10;97.30;;;;;;5076035;28;20420;-89
2022/08/14 06:10:46;;;;;;;5.73;4.43;;;19.10;97.30;;;;;;5107035;28;20441;-90
2022/08/14 06:13:15;;;;;;;4.67;2.37;;;19.20;97.30;;;;;;5093941;28;20484;-90
2022/08/14 06:15:56;;;;;;;4.23;3.40;;;19.30;97.30;;;;;;5096156;28;20562;-90
2022/08/14 06:18:27;;;;;;;10.17;3.60;;;19.40;97.30;;;;;;5095960;28;20411;-89
2022/08/14 06:20:55;;;;;;;6.87;3.70;;;19.40;97.30;;;;;;5095976;28;20435;-90
2022/08/14 06:23:25;;;;;;;8.00;4.20;;;19.50;97.30;;;;;;5114325;28;20410;-89
2022/08/14 06:25:56;;;;;;;3.63;3.07;;;19.60;97.30;;;;;;5114213;28;20403;-89
2022/08/14 06:28:44;;;;;;;4.80;2.47;;;19.70;97.30;;;;;;5096191;28;20956;-89
2022/08/14 06:31:16;;;;;;;4.37;2.97;;;19.80;97.30;;;;;;5082738;28;20412;-89
2022/08/14 06:33:44;;;;;;;4.63;3.17;;;19.90;97.30;;;;;;5095823;28;20422;-89
2022/08/14 06:36:17;;;;;;;3.73;2.40;;;20.00;97.30;;;;;;5096058;28;20445;-90
2022/08/14 06:38:46;;;;;;;6.50;3.20;;;20.10;97.30;;;;;;5095527;28;20915;-90
2022/08/14 06:41:17;;;;;;;3.10;2.70;;;20.20;97.30;;;;;;5095476;28;20418;-89
2022/08/14 06:43:45;;;;;;;5.60;2.60;;;20.30;97.30;;;;;;5091049;28;20500;-89
2022/08/14 06:46:17;;;;;;;5.13;2.97;;;20.50;97.30;;;;;;5087712;28;20419;-89
2022/08/14 06:48:55;;;;;;;4.50;3.40;;;20.60;97.30;;;;;;5108356;28;20440;-90
2022/08/14 06:51:26;;;;;;;3.60;2.40;;;20.70;97.30;;;;;;5108127;28;20813;-89
2022/08/14 06:53:57;;;;;;;5.57;4.03;;;20.80;97.30;;;;;;5095203;28;20443;-89
2022/08/14 06:56:26;;;;;;;3.20;2.60;;;20.90;97.30;;;;;;5113687;27;20476;-90
2022/08/14 06:58:55;;;;;;;4.50;2.53;;;21.00;97.30;;;;;;5095194;28;20427;-89
2022/08/14 07:07:04;;;;;;;5.07;3.00;;;21.30;97.30;;;;;;5112869;28;20526;-89
2022/08/14 07:09:36;;;;;;;6.93;4.13;;;21.50;97.30;;;;;;5094689;28;20522;-90
2022/08/14 07:12:05;;;;;;;3.93;2.67;;;21.60;97.30;;;;;;5095017;28;20471;-90
2022/08/14 07:14:46;;;;;;;4.13;2.10;;;21.70;97.30;;;;;;5094584;28;20456;-89
2022/08/14 07:17:15;;;;;;;3.60;2.73;;;21.80;97.30;;;;;;5095129;28;21139;-89
2022/08/14 07:20:06;;;;;;;4.67;3.23;;;21.90;97.30;;;;;;5094420;28;20865;-89
2022/08/14 07:23:00;;;;;;;3.10;2.10;;;22.00;97.30;;;;;;5094734;28;20447;-91
2022/08/14 07:25:27;;;;;;;3.63;2.70;;;22.10;97.30;;;;;;5094545;28;20423;-90
2022/08/14 07:27:56;;;;;;;5.70;3.40;;;22.20;97.30;;;;;;5094288;28;20445;-90
2022/08/14 07:30:28;;;;;;;4.10;2.70;;;22.20;97.30;;;;;;5094539;28;20450;-89
2022/08/14 07:32:56;;;;;;;7.13;3.23;;;22.30;97.30;;;;;;5094679;28;20423;-89
2022/08/14 07:35:26;;;;;;;4.60;2.63;;;22.40;97.30;;;;;;5094574;28;20482;-89
2022/08/14 07:38:07;;;;;;;5.07;2.80;;;22.50;97.30;;;;;;5094369;28;20446;-90
2022/08/14 07:40:35;;;;;;;5.30;3.60;;;22.60;97.30;;;;;;5094374;28;20740;-89
2022/08/14 07:43:27;;;;;;;3.77;3.10;;;22.70;97.30;;;;;;5094991;28;20423;-89
2022/08/14 07:45:57;;;;;;;3.70;2.70;;;22.90;97.30;;;;;;5106194;28;20416;-88
2022/08/14 07:48:26;;;;;;;4.03;2.30;;;23.00;97.30;;;;;;5101211;28;20422;-88
2022/08/14 07:50:58;;;;;;;3.83;2.73;;;23.10;97.30;;;;;;5097663;28;20478;-89
2022/08/14 07:53:27;;;;;;;5.10;3.37;;;23.20;97.30;;;;;;5097335;28;20415;-89
2022/08/14 07:55:58;;;;;;;5.20;2.53;;;23.30;97.30;;;;;;5097990;28;20921;-89
2022/08/14 07:58:46;;;;;;;4.20;2.60;;;23.40;97.30;;;;;;5099643;28;20454;-88
2022/08/14 08:01:56;;;;;;;7.50;3.37;;;23.60;97.30;;;;;;5077219;28;20810;-89
2022/08/14 08:05:08;;;;;;;;;;;;;;;;;;;;;
2022/08/14 08:07:47;;;;;;;4.63;3.27;;;23.70;97.30;;;;;;5115556;28;20420;-89
2022/08/14 08:10:46;;;;;;;4.07;2.77;;;23.80;97.30;;;;;;5096148;28;20457;-89
2022/08/14 08:13:48;;;;;;;3.83;3.07;;;24.00;97.30;;;;;;5093475;28;20829;-88
2022/08/14 08:16:07;;;;;;;3.07;2.20;;;24.10;97.30;;;;;;5104727;28;20485;-89
2022/08/14 08:18:35;;;;;;;3.00;2.80;;;24.20;97.30;;;;;;5096141;28;20424;-89
2022/08/14 08:21:15;;;;;;;4.40;3.30;;;24.30;97.30;;;;;;5095158;28;20500;-89
2022/08/14 08:23:57;;;;;;;3.33;3.13;;;24.40;97.30;;;;;;5114464;28;20448;-88
2022/08/14 08:26:57;;;;;;;6.20;4.10;;;24.50;97.30;;;;;;5095013;28;20431;-88
2022/08/14 08:29:27;;;;;;;3.33;2.27;;;24.60;97.30;;;;;;5094917;28;20500;-89
2022/08/14 08:31:58;;;;;;;6.57;3.33;;;24.60;97.30;;;;;;5095819;28;20427;-89
2022/08/14 08:34:28;;;;;;;3.83;2.40;;;24.70;97.30;;;;;;5095224;28;20455;-88
2022/08/14 08:36:57;;;;;;;4.13;2.80;;;24.70;97.10;;;;;;5095105;28;20434;-88
2022/08/14 08:39:25;;;;;;;6.90;3.87;;;24.80;97.30;;;;;;5113269;28;20933;-89
2022/08/14 08:41:51;;;;;;;3.10;2.57;;;24.90;97.20;;;;;;5094142;28;20440;-88
2022/08/14 08:44:16;;;;;;;3.80;3.10;;;24.90;97.00;;;;;;5094883;28;20427;-88
2022/08/14 08:46:46;;;;;;;9.27;5.43;;;25.00;97.30;;;;;;5094754;28;20228;-89
2022/08/14 08:49:11;;;;;;;6.03;2.30;;;25.10;97.20;;;;;;5081869;28;20202;-88
2022/08/14 08:51:38;;;;;;;2.33;2.13;;;25.20;96.70;;;;;;5094507;28;20423;-89
2022/08/14 08:54:11;;;;;;;3.63;2.97;;;25.30;96.50;;;;;;5094389;28;20201;-89
2022/08/14 08:56:48;;;;;;;3.80;3.20;;;25.40;95.70;;;;;;5109453;28;20412;-88
2022/08/14 08:59:46;;;;;;;5.57;3.10;;;25.40;95.40;;;;;;5109543;28;20866;-88
2022/08/14 09:02:47;;;;;;;4.53;3.60;;;25.40;94.90;;;;;;5048650;28;20459;-89
2022/08/14 09:05:57;;;;;;;7.67;3.47;;;25.40;95.00;;;;;;5108139;28;20435;-89
2022/08/14 09:08:28;;;;;;;2.93;2.73;;;25.50;95.30;;;;;;5082742;28;20430;-88
2022/08/14 09:11:16;;;;;;;2.60;2.23;;;25.70;95.30;;;;;;5094024;28;20435;-89
2022/08/14 09:14:07;;;;;;;9.37;3.30;;;25.80;94.60;;;;;;5094567;28;20420;-88
2022/08/14 09:16:49;;;;;;;;;;;;;;;;;;;;;
2022/08/14 09:19:27;;;;;;;3.30;2.27;;;26.00;94.70;;;;;;5113621;28;20441;-88
2022/08/14 09:22:06;;;;;;;1.90;1.90;;;26.10;93.90;;;;;;5094480;28;20448;-87
2022/08/14 09:24:48;;;;;;;4.03;2.20;;;26.20;93.60;;;;;;5109774;28;20498;-88
2022/08/14 09:27:27;;;;;;;2.63;1.90;;;26.20;93.00;;;;;;5094853;28;20418;-88
2022/08/14 09:30:28;;;;;;;3.40;2.57;;;26.30;93.20;;;;;;5094255;28;20439;-88
2022/08/14 09:33:26;;;;;;;3.00;2.70;;;26.40;93.30;;;;;;5091048;28;20413;-88
2022/08/14 09:36:56;;;;;;;4.43;2.73;;;26.50;92.80;;;;;;5064704;28;20467;-88
2022/08/14 09:40:08;;;;;;;3.40;2.60;;;26.60;91.70;;;;;;5033881;28;20473;-88
2022/08/14 09:43:17;;;;;;;3.03;2.50;;;26.60;91.40;;;;;;5043881;28;20426;-85
2022/08/14 09:45:57;;;;;;;2.13;1.97;;;26.80;91.40;;;;;;5029666;28;20464;-87
2022/08/14 09:48:36;;;;;;;3.23;2.23;;;26.90;91.20;;;;;;5085165;28;20407;-88
2022/08/14 09:51:06;;;;;;;2.93;2.70;;;26.90;90.90;;;;;;5095045;28;20435;-88
2022/08/14 09:54:06;;;;;;;2.17;1.90;;;27.10;90.90;;;;;;5095094;28;20443;-88
2022/08/14 09:56:49;;;;;;;4.87;2.53;;;27.20;90.70;;;;;;5091937;28;20453;-88
2022/08/14 09:59:21;;;;;;;1.90;1.87;;;27.40;89.80;;;;;;5095283;28;20457;-88
2022/08/14 10:01:48;;;;;;;3.13;2.33;;;27.60;88.70;;;;;;5113084;28;20423;-87
2022/08/14 10:07:57;;;;;;;5.47;4.27;;;27.80;88.30;;;;;;5095968;27;20803;-88
2022/08/14 10:10:52;;;;;;;;;;;;;;;;;;;;;
2022/08/14 10:13:23;;;;;;;2.50;2.30;;;28.00;87.50;;;;;;5112915;28;20794;-88
2022/08/14 10:15:57;;;;;;;4.77;3.00;;;28.10;88.30;;;;;;5077719;28;20463;-88
2022/08/14 10:18:26;;;;;;;3.13;2.73;;;28.20;87.60;;;;;;5112894;28;20455;-87
2022/08/14 10:20:56;;;;;;;3.57;1.70;;;28.20;87.70;;;;;;5091594;28;20954;-88
2022/08/14 10:23:48;;;;;;;4.60;2.43;;;28.30;87.10;;;;;;5093506;28;20411;-86
2022/08/14 10:26:21;;;;;;;2.10;1.93;;;28.40;86.70;;;;;;5080406;28;20420;-87
2022/08/14 10:28:56;;;;;;;2.20;1.80;;;28.40;86.90;;;;;;5111735;28;20426;-88
2022/08/14 10:31:38;;;;;;;2.40;2.27;;;28.40;86.80;;;;;;5093554;28;20571;-88
2022/08/14 10:34:18;;;;;;;3.40;2.60;;;28.50;86.40;;;;;;5111975;28;20470;-88
2022/08/14 10:36:47;;;;;;;2.00;1.60;;;28.50;86.50;;;;;;5093084;28;20506;-88
2022/08/14 10:39:28;;;;;;;3.77;2.10;;;28.60;86.60;;;;;;5111421;28;20518;-87
2022/08/14 10:42:31;;;;;;;2.57;2.10;;;28.70;85.50;;;;;;5094319;28;20407;-87
2022/08/14 10:45:08;;;;;;;2.70;2.50;;;28.90;85.40;;;;;;5091281;28;20420;-87
2022/08/14 10:47:51;;;;;;;;;;;;;;;;;;;;;
2022/08/14 10:50:48;;;;;;;4.10;3.17;;;29.20;83.70;;;;;;5111018;28;20447;-88
2022/08/14 10:54:26;;;;;;;;;;;;;;;;;;;;;
2022/08/14 10:56:17;;;;;;;3.67;2.60;;;29.60;82.30;;;;;;5094394;28;20564;-88
2022/08/14 10:58:48;;;;;;;2.50;2.30;;;29.80;81.30;;;;;;5093825;28;20503;-88
2022/08/14 11:01:17;;;;;;;3.53;2.90;;;30.00;80.70;;;;;;5087872;28;20252;-87
2022/08/14 11:04:05;;;;;;;2.60;2.17;;;30.10;79.80;;;;;;5112662;28;20457;-89
2022/08/14 11:06:38;;;;;;;2.50;2.00;;;30.20;79.40;;;;;;5081758;28;20495;-87
2022/08/14 11:09:35;;;;;;;3.30;2.47;;;30.30;79.60;;;;;;5094417;28;20446;-88
2022/08/14 11:12:07;;;;;;;2.77;1.93;;;30.30;79.60;;;;;;5084354;28;20453;-88
2022/08/14 11:15:27;;;;;;;3.60;2.50;;;30.30;78.30;;;;;;5094342;28;20486;-87
2022/08/14 11:17:55;;;;;;;3.00;1.70;;;30.40;79.20;;;;;;5083654;28;20419;-87
2022/08/14 11:20:47;;;;;;;2.17;2.03;;;30.50;78.20;;;;;;5094285;28;20427;-87
2022/08/14 11:23:30;;;;;;;;;;;;;;;;;;;;;
2022/08/14 11:25:58;;;;;;;2.20;1.87;;;30.50;76.70;;;;;;5101186;28;20421;-87
2022/08/14 11:28:37;;;;;;;3.10;1.90;;;30.60;77.30;;;;;;5092663;28;20415;-87
2022/08/14 11:31:18;;;;;;;2.90;2.00;;;30.60;77.30;;;;;;5099454;28;20441;-86
2022/08/14 11:33:49;;;;;;;3.60;1.87;;;30.70;77.00;;;;;;5094234;28;20446;-88
2022/08/14 11:36:28;;;;;;;1.80;1.70;;;30.80;76.50;;;;;;5093493;28;20423;-87
2022/08/14 11:38:57;;;;;;;2.70;2.50;;;30.90;76.90;;;;;;5093240;28;20420;-87
2022/08/14 11:41:26;;;;;;;2.57;1.80;;;30.90;75.80;;;;;;5093826;28;20441;-87
2022/08/14 11:44:06;;;;;;;2.40;2.07;;;30.90;76.10;;;;;;5092795;28;20791;-87
2022/08/14 11:46:48;;;;;;;5.03;2.60;;;31.00;75.80;;;;;;5090222;28;20515;-87
2022/08/14 11:49:47;;;;;;;2.13;1.97;;;31.00;75.20;;;;;;5091738;28;20431;-87
2022/08/14 11:52:17;;;;;;;4.17;2.40;;;31.00;76.40;;;;;;5108041;27;20427;-88
2022/08/14 11:54:57;;;;;;;3.60;2.50;;;31.00;76.20;;;;;;5093315;28;21106;-88
2022/08/14 11:57:26;;;;;;;2.47;2.20;;;31.10;76.20;;;;;;5093837;28;20507;-87
2022/08/14 12:00:10;;;;;;;2.20;1.97;;;31.20;76.30;;;;;;5088086;28;20518;-87
2022/08/14 12:02:36;;;;;;;2.23;2.00;;;31.30;74.90;;;;;;5103283;22;20488;-81
2022/08/14 12:05:03;;;;;;;3.60;2.97;;;31.30;75.00;;;;;;5097691;28;20519;-80
2022/08/14 12:07:29;;;;;;;1.87;1.87;;;31.40;75.20;;;;;;5081727;28;20953;-82
2022/08/14 12:09:56;;;;;;;3.07;2.70;;;31.40;74.20;;;;;;5084150;28;20476;-81
2022/08/14 12:12:24;;;;;;;2.17;1.83;;;31.40;74.20;;;;;;5085799;28;20229;-81
2022/08/14 12:14:59;;;;;;;2.57;2.37;;;31.40;74.30;;;;;;5078720;28;20503;-81
2022/08/14 12:17:26;;;;;;;1.83;1.83;;;31.40;73.90;;;;;;5078908;28;20525;-81
2022/08/14 12:19:57;;;;;;;4.27;2.03;;;31.40;74.40;;;;;;5097014;28;20439;-82
2022/08/14 12:22:36;;;;;;;1.70;1.70;;;31.50;74.00;;;;;;5093744;28;20417;-79
2022/08/14 12:25:05;;;;;;;1.30;1.10;;;31.60;74.90;;;;;;5091694;28;20431;-79
2022/08/14 12:27:51;;;;;;;3.03;2.33;;;31.70;73.00;;;;;;5079134;28;20508;-79
2022/08/14 12:30:36;;;;;;;2.10;1.97;;;31.70;72.70;;;;;;5092939;28;20439;-79
2022/08/14 12:33:04;;;;;;;3.43;2.00;;;31.70;72.70;;;;;;5085181;28;20554;-79
2022/08/14 12:35:41;;;;;;;4.90;2.10;;;31.70;73.20;;;;;;5078137;28;20490;-79
2022/08/14 12:38:11;;;;;;;2.60;2.40;;;31.80;72.50;;;;;;5086751;28;20408;-79
2022/08/14 12:40:48;;;;;;;2.60;2.07;;;31.90;73.30;;;;;;5078147;28;20412;-79
2022/08/14 12:43:17;;;;;;;2.53;1.80;;;32.00;72.40;;;;;;5095799;28;20432;-79
2022/08/14 12:45:48;;;;;;;2.00;1.73;;;32.10;72.00;;;;;;5080181;28;20963;-80
2022/08/14 12:48:16;;;;;;;2.33;2.17;;;32.20;72.20;;;;;;5096804;28;20427;-79
2022/08/14 12:50:43;;;;;;;3.00;2.23;;;32.30;72.00;;;;;;5075824;28;20418;-80
2022/08/14 12:53:09;;;;;;;1.97;1.87;;;32.60;71.60;;;;;;5091799;28;20416;-80
2022/08/14 12:55:36;;;;;;;5.70;3.03;;;32.60;70.70;;;;;;5079119;28;20460;-79
2022/08/14 12:58:04;;;;;;;2.50;2.13;;;32.60;70.30;;;;;;5086743;28;20464;-81
2022/08/14 13:00:32;;;;;;;2.43;1.80;;;32.50;70.60;;;;;;5079513;28;20425;-80
2022/08/14 13:02:57;;;;;;;2.50;2.30;;;32.30;70.70;;;;;;5097137;28;20463;-79
2022/08/14 13:05:25;;;;;;;2.00;1.90;;;32.10;71.00;;;;;;5080299;28;20499;-80
2022/08/14 13:07:52;;;;;;;2.80;2.40;;;32.00;71.60;;;;;;5092843;28;20182;-80
2022/08/14 13:10:20;;;;;;;2.37;1.90;;;31.90;72.20;;;;;;5079822;28;20476;-79
2022/08/14 13:12:47;;;;;;;2.20;2.07;;;31.90;72.70;;;;;;5078589;28;20421;-79
2022/08/14 13:15:14;;;;;;;4.33;2.63;;;31.80;72.50;;;;;;5084784;28;20468;-80
2022/08/14 13:17:48;;;;;;;4.00;3.10;;;31.50;72.60;;;;;;5087565;28;20915;-80
2022/08/14 13:20:16;;;;;;;2.47;1.90;;;31.30;73.00;;;;;;5078846;28;20520;-81
2022/08/14 13:22:43;;;;;;;4.90;2.80;;;31.20;73.00;;;;;;5074874;28;20495;-80
2022/08/14 13:25:12;;;;;;;2.97;2.40;;;31.00;73.50;;;;;;5086281;28;20412;-80
2022/08/14 13:27:37;;;;;;;1.80;1.70;;;30.90;74.20;;;;;;5091296;28;20432;-79
2022/08/14 13:30:09;;;;;;;2.20;2.00;;;30.70;76.90;;;;;;5085043;28;20575;-80
2022/08/14 13:32:39;;;;;;;4.83;2.77;;;30.40;82.60;;;;;;5081995;28;20182;-80
2022/08/14 13:35:06;;;;;;;2.03;1.90;;;29.90;84.60;;;;;;5072404;28;20509;-80
2022/08/14 13:37:32;;;;;;;3.10;2.43;;;29.50;87.50;;;;;;5073217;28;20992;-80
2022/08/14 13:39:58;;;;;;;3.60;2.73;;;29.20;89.80;;;;;;5094832;28;20917;-80
2022/08/14 13:42:28;;;;;;;2.30;1.97;;;29.00;87.80;;;;;;5074095;28;20486;-79